sensor_id;sensor_type;location;lat;lon;timestamp;P1;durP1;ratioP1;P2;durP2;ratioP2
53062;SDS011;40529;52.172;10.548;2022-11-12T00:02:19;14.18;;;7.32;;
53062;SDS011;40529;52.172;10.548;2022-11-12T00:04:45;11.68;;;5.82;;
53062;SDS011;40529;52.172;10.548;2022-11-12T00:07:11;8.40;;;4.72;;
53062;SDS011;40529;52.172;10.548;2022-11-12T00:09:37;9.00;;;5.15;;
53062;SDS011;40529;52.172;10.548;2022-11-12T00:12:03;10.57;;;4.50;;
53062;SDS011;40529;52.172;10.548;2022-11-12T00:14:29;9.05;;;4.72;;
53062;SDS011;40529;52.172;10.548;2022-11-12T00:16:55;7.63;;;4.55;;
53062;SDS011;40529;52.172;10.548;2022-11-12T00:19:21;5.85;;;3.72;;
53062;SDS011;40529;52.172;10.548;2022-11-12T00:21:47;5.80;;;3.67;;
53062;SDS011;40529;52.172;10.548;2022-11-12T00:24:13;6.65;;;3.13;;
53062;SDS011;40529;52.172;10.548;2022-11-12T00:26:39;5.38;;;3.38;;
53062;SDS011;40529;52.172;10.548;2022-11-12T00:29:05;5.40;;;3.53;;
53062;SDS011;40529;52.172;10.548;2022-11-12T00:31:31;4.97;;;3.08;;
53062;SDS011;40529;52.172;10.548;2022-11-12T00:33:58;4.50;;;2.90;;
53062;SDS011;40529;52.172;10.548;2022-11-12T00:36:24;4.38;;;3.17;;
53062;SDS011;40529;52.172;10.548;2022-11-12T00:38:50;5.03;;;3.20;;
53062;SDS011;40529;52.172;10.548;2022-11-12T00:41:16;3.80;;;2.90;;
53062;SDS011;40529;52.172;10.548;2022-11-12T00:43:42;4.82;;;3.03;;
53062;SDS011;40529;52.172;10.548;2022-11-12T00:46:08;4.70;;;3.03;;
53062;SDS011;40529;52.172;10.548;2022-11-12T00:48:34;4.15;;;2.72;;
53062;SDS011;40529;52.172;10.548;2022-11-12T00:51:02;3.65;;;2.70;;
53062;SDS011;40529;52.172;10.548;2022-11-12T00:53:29;6.57;;;3.05;;
53062;SDS011;40529;52.172;10.548;2022-11-12T00:56:02;4.25;;;3.00;;
53062;SDS011;40529;52.172;10.548;2022-11-12T00:58:29;5.45;;;2.50;;
53062;SDS011;40529;52.172;10.548;2022-11-12T01:00:55;4.35;;;2.55;;
53062;SDS011;40529;52.172;10.548;2022-11-12T01:03:21;4.40;;;3.00;;
53062;SDS011;40529;52.172;10.548;2022-11-12T01:05:47;4.15;;;2.80;;
53062;SDS011;40529;52.172;10.548;2022-11-12T01:08:13;4.63;;;2.80;;
53062;SDS011;40529;52.172;10.548;2022-11-12T01:10:39;3.35;;;2.50;;
53062;SDS011;40529;52.172;10.548;2022-11-12T01:13:05;4.88;;;2.92;;
53062;SDS011;40529;52.172;10.548;2022-11-12T01:15:31;4.22;;;2.97;;
53062;SDS011;40529;52.172;10.548;2022-11-12T01:17:57;5.70;;;2.53;;
53062;SDS011;40529;52.172;10.548;2022-11-12T01:20:23;4.65;;;2.60;;
53062;SDS011;40529;52.172;10.548;2022-11-12T01:22:49;3.25;;;2.63;;
53062;SDS011;40529;52.172;10.548;2022-11-12T01:25:16;3.40;;;2.80;;
53062;SDS011;40529;52.172;10.548;2022-11-12T01:27:42;4.65;;;2.50;;
53062;SDS011;40529;52.172;10.548;2022-11-12T01:30:08;7.22;;;2.95;;
53062;SDS011;40529;52.172;10.548;2022-11-12T01:32:34;7.30;;;3.17;;
53062;SDS011;40529;52.172;10.548;2022-11-12T01:35:01;4.85;;;3.38;;
53062;SDS011;40529;52.172;10.548;2022-11-12T01:37:27;3.92;;;3.00;;
53062;SDS011;40529;52.172;10.548;2022-11-12T01:39:53;5.75;;;3.05;;
53062;SDS011;40529;52.172;10.548;2022-11-12T01:42:19;4.38;;;2.97;;
53062;SDS011;40529;52.172;10.548;2022-11-12T01:44:45;5.22;;;3.00;;
53062;SDS011;40529;52.172;10.548;2022-11-12T01:49:42;4.70;;;2.92;;
53062;SDS011;40529;52.172;10.548;2022-11-12T01:52:15;4.10;;;3.10;;
53062;SDS011;40529;52.172;10.548;2022-11-12T01:54:42;5.38;;;3.30;;
53062;SDS011;40529;52.172;10.548;2022-11-12T01:57:11;6.25;;;3.30;;
53062;SDS011;40529;52.172;10.548;2022-11-12T01:59:39;5.47;;;3.45;;
53062;SDS011;40529;52.172;10.548;2022-11-12T02:02:06;5.57;;;3.20;;
53062;SDS011;40529;52.172;10.548;2022-11-12T02:04:33;5.75;;;3.22;;
53062;SDS011;40529;52.172;10.548;2022-11-12T02:07:00;7.65;;;5.00;;
53062;SDS011;40529;52.172;10.548;2022-11-12T02:09:27;4.80;;;3.50;;
53062;SDS011;40529;52.172;10.548;2022-11-12T02:11:53;5.00;;;3.30;;
53062;SDS011;40529;52.172;10.548;2022-11-12T02:14:19;3.55;;;2.70;;
53062;SDS011;40529;52.172;10.548;2022-11-12T02:16:46;6.70;;;3.47;;
53062;SDS011;40529;52.172;10.548;2022-11-12T02:19:13;6.75;;;3.33;;
53062;SDS011;40529;52.172;10.548;2022-11-12T02:21:40;5.70;;;3.40;;
53062;SDS011;40529;52.172;10.548;2022-11-12T02:26:40;4.68;;;3.30;;
53062;SDS011;40529;52.172;10.548;2022-11-12T02:29:06;5.82;;;3.70;;
53062;SDS011;40529;52.172;10.548;2022-11-12T02:31:33;6.82;;;3.75;;
53062;SDS011;40529;52.172;10.548;2022-11-12T02:33:59;6.38;;;3.72;;
53062;SDS011;40529;52.172;10.548;2022-11-12T02:36:25;5.60;;;3.47;;
53062;SDS011;40529;52.172;10.548;2022-11-12T02:38:51;5.70;;;3.70;;
53062;SDS011;40529;52.172;10.548;2022-11-12T02:41:17;6.03;;;3.97;;
53062;SDS011;40529;52.172;10.548;2022-11-12T02:43:43;4.95;;;3.40;;
53062;SDS011;40529;52.172;10.548;2022-11-12T02:46:09;5.18;;;3.55;;
53062;SDS011;40529;52.172;10.548;2022-11-12T02:48:35;4.93;;;3.38;;
53062;SDS011;40529;52.172;10.548;2022-11-12T02:51:02;4.50;;;3.10;;
53062;SDS011;40529;52.172;10.548;2022-11-12T02:53:28;5.47;;;3.13;;
53062;SDS011;40529;52.172;10.548;2022-11-12T02:55:56;4.50;;;3.30;;
53062;SDS011;40529;52.172;10.548;2022-11-12T02:58:22;7.25;;;4.30;;
53062;SDS011;40529;52.172;10.548;2022-11-12T03:00:48;7.93;;;4.43;;
53062;SDS011;40529;52.172;10.548;2022-11-12T03:03:15;6.20;;;4.32;;
53062;SDS011;40529;52.172;10.548;2022-11-12T03:05:41;7.50;;;4.38;;
53062;SDS011;40529;52.172;10.548;2022-11-12T03:08:07;6.97;;;4.45;;
53062;SDS011;40529;52.172;10.548;2022-11-12T03:10:35;6.15;;;3.67;;
53062;SDS011;40529;52.172;10.548;2022-11-12T03:13:02;6.30;;;4.22;;
53062;SDS011;40529;52.172;10.548;2022-11-12T03:15:28;5.78;;;3.80;;
53062;SDS011;40529;52.172;10.548;2022-11-12T03:17:56;5.60;;;3.92;;
53062;SDS011;40529;52.172;10.548;2022-11-12T03:20:22;7.03;;;4.53;;
53062;SDS011;40529;52.172;10.548;2022-11-12T03:22:58;9.05;;;4.22;;
53062;SDS011;40529;52.172;10.548;2022-11-12T03:25:25;12.02;;;4.40;;
53062;SDS011;40529;52.172;10.548;2022-11-12T03:27:58;7.03;;;3.80;;
53062;SDS011;40529;52.172;10.548;2022-11-12T03:30:25;6.43;;;3.88;;
53062;SDS011;40529;52.172;10.548;2022-11-12T03:32:51;10.27;;;4.60;;
53062;SDS011;40529;52.172;10.548;2022-11-12T03:35:17;7.43;;;4.25;;
53062;SDS011;40529;52.172;10.548;2022-11-12T03:37:43;9.40;;;4.30;;
53062;SDS011;40529;52.172;10.548;2022-11-12T03:40:09;5.95;;;3.70;;
53062;SDS011;40529;52.172;10.548;2022-11-12T03:42:36;7.60;;;4.68;;
53062;SDS011;40529;52.172;10.548;2022-11-12T03:45:02;6.55;;;4.07;;
53062;SDS011;40529;52.172;10.548;2022-11-12T03:47:28;7.15;;;4.15;;
53062;SDS011;40529;52.172;10.548;2022-11-12T03:49:54;7.40;;;4.10;;
53062;SDS011;40529;52.172;10.548;2022-11-12T03:52:20;7.90;;;4.45;;
53062;SDS011;40529;52.172;10.548;2022-11-12T03:54:46;6.63;;;4.32;;
53062;SDS011;40529;52.172;10.548;2022-11-12T03:57:12;9.05;;;4.72;;
53062;SDS011;40529;52.172;10.548;2022-11-12T03:59:38;6.75;;;4.43;;
53062;SDS011;40529;52.172;10.548;2022-11-12T04:02:04;6.03;;;4.25;;
53062;SDS011;40529;52.172;10.548;2022-11-12T04:04:30;7.90;;;4.90;;
53062;SDS011;40529;52.172;10.548;2022-11-12T04:07:15;7.30;;;4.40;;
53062;SDS011;40529;52.172;10.548;2022-11-12T04:09:59;7.63;;;4.70;;
53062;SDS011;40529;52.172;10.548;2022-11-12T04:12:25;9.10;;;4.40;;
53062;SDS011;40529;52.172;10.548;2022-11-12T04:15:10;7.65;;;4.53;;
53062;SDS011;40529;52.172;10.548;2022-11-12T04:17:36;8.02;;;4.70;;
53062;SDS011;40529;52.172;10.548;2022-11-12T04:20:20;6.43;;;4.40;;
53062;SDS011;40529;52.172;10.548;2022-11-12T04:23:05;10.43;;;4.78;;
53062;SDS011;40529;52.172;10.548;2022-11-12T04:25:31;7.15;;;4.53;;
53062;SDS011;40529;52.172;10.548;2022-11-12T04:28:16;7.43;;;4.90;;
53062;SDS011;40529;52.172;10.548;2022-11-12T04:30:42;8.70;;;4.57;;
53062;SDS011;40529;52.172;10.548;2022-11-12T04:33:08;7.50;;;4.93;;
53062;SDS011;40529;52.172;10.548;2022-11-12T04:35:34;8.20;;;4.88;;
53062;SDS011;40529;52.172;10.548;2022-11-12T04:38:00;7.97;;;5.10;;
53062;SDS011;40529;52.172;10.548;2022-11-12T04:40:26;8.95;;;5.13;;
53062;SDS011;40529;52.172;10.548;2022-11-12T04:43:11;7.93;;;5.10;;
53062;SDS011;40529;52.172;10.548;2022-11-12T04:45:56;9.23;;;5.28;;
53062;SDS011;40529;52.172;10.548;2022-11-12T04:48:23;8.85;;;5.22;;
53062;SDS011;40529;52.172;10.548;2022-11-12T04:50:54;6.80;;;4.30;;
53062;SDS011;40529;52.172;10.548;2022-11-12T04:53:21;6.40;;;4.32;;
53062;SDS011;40529;52.172;10.548;2022-11-12T04:55:51;7.53;;;4.45;;
53062;SDS011;40529;52.172;10.548;2022-11-12T04:58:17;8.68;;;4.95;;
53062;SDS011;40529;52.172;10.548;2022-11-12T05:00:44;7.18;;;3.97;;
53062;SDS011;40529;52.172;10.548;2022-11-12T05:03:10;7.18;;;4.65;;
53062;SDS011;40529;52.172;10.548;2022-11-12T05:05:36;6.70;;;4.47;;
53062;SDS011;40529;52.172;10.548;2022-11-12T05:08:02;9.98;;;4.50;;
53062;SDS011;40529;52.172;10.548;2022-11-12T05:10:29;6.75;;;4.43;;
53062;SDS011;40529;52.172;10.548;2022-11-12T05:12:55;9.95;;;4.88;;
53062;SDS011;40529;52.172;10.548;2022-11-12T05:15:21;10.18;;;5.40;;
53062;SDS011;40529;52.172;10.548;2022-11-12T05:17:47;9.57;;;6.05;;
53062;SDS011;40529;52.172;10.548;2022-11-12T05:20:13;9.45;;;6.60;;
53062;SDS011;40529;52.172;10.548;2022-11-12T05:22:40;9.35;;;6.57;;
53062;SDS011;40529;52.172;10.548;2022-11-12T05:25:06;9.93;;;6.30;;
53062;SDS011;40529;52.172;10.548;2022-11-12T05:27:32;9.18;;;6.25;;
53062;SDS011;40529;52.172;10.548;2022-11-12T05:29:59;7.68;;;5.70;;
53062;SDS011;40529;52.172;10.548;2022-11-12T05:32:25;6.82;;;5.15;;
53062;SDS011;40529;52.172;10.548;2022-11-12T05:34:51;8.63;;;5.30;;
53062;SDS011;40529;52.172;10.548;2022-11-12T05:37:17;10.43;;;5.65;;
53062;SDS011;40529;52.172;10.548;2022-11-12T05:39:43;6.93;;;4.80;;
53062;SDS011;40529;52.172;10.548;2022-11-12T05:42:09;7.70;;;4.30;;
53062;SDS011;40529;52.172;10.548;2022-11-12T05:44:36;7.60;;;4.85;;
53062;SDS011;40529;52.172;10.548;2022-11-12T05:47:02;7.55;;;4.60;;
53062;SDS011;40529;52.172;10.548;2022-11-12T05:49:28;8.32;;;4.70;;
53062;SDS011;40529;52.172;10.548;2022-11-12T05:51:54;9.70;;;5.88;;
53062;SDS011;40529;52.172;10.548;2022-11-12T05:54:20;8.73;;;5.72;;
53062;SDS011;40529;52.172;10.548;2022-11-12T05:56:49;8.20;;;4.53;;
53062;SDS011;40529;52.172;10.548;2022-11-12T05:59:16;9.43;;;5.25;;
53062;SDS011;40529;52.172;10.548;2022-11-12T06:01:42;7.88;;;4.60;;
53062;SDS011;40529;52.172;10.548;2022-11-12T06:04:09;6.50;;;4.85;;
53062;SDS011;40529;52.172;10.548;2022-11-12T06:06:35;7.13;;;4.93;;
53062;SDS011;40529;52.172;10.548;2022-11-12T06:09:02;7.13;;;5.00;;
53062;SDS011;40529;52.172;10.548;2022-11-12T06:11:28;8.55;;;4.75;;
53062;SDS011;40529;52.172;10.548;2022-11-12T06:13:54;7.80;;;5.05;;
53062;SDS011;40529;52.172;10.548;2022-11-12T06:16:20;8.77;;;5.47;;
53062;SDS011;40529;52.172;10.548;2022-11-12T06:18:46;7.13;;;5.00;;
53062;SDS011;40529;52.172;10.548;2022-11-12T06:21:12;9.63;;;5.40;;
53062;SDS011;40529;52.172;10.548;2022-11-12T06:23:46;9.60;;;5.60;;
53062;SDS011;40529;52.172;10.548;2022-11-12T06:26:13;9.70;;;5.93;;
53062;SDS011;40529;52.172;10.548;2022-11-12T06:28:39;8.20;;;5.78;;
53062;SDS011;40529;52.172;10.548;2022-11-12T06:31:05;8.35;;;5.72;;
53062;SDS011;40529;52.172;10.548;2022-11-12T06:33:31;10.43;;;6.82;;
53062;SDS011;40529;52.172;10.548;2022-11-12T06:35:58;9.07;;;5.60;;
53062;SDS011;40529;52.172;10.548;2022-11-12T06:38:27;10.40;;;4.90;;
53062;SDS011;40529;52.172;10.548;2022-11-12T06:40:53;12.43;;;6.53;;
53062;SDS011;40529;52.172;10.548;2022-11-12T06:43:19;7.75;;;5.32;;
53062;SDS011;40529;52.172;10.548;2022-11-12T06:45:45;9.55;;;5.85;;
53062;SDS011;40529;52.172;10.548;2022-11-12T06:48:11;8.52;;;5.60;;
53062;SDS011;40529;52.172;10.548;2022-11-12T06:50:37;9.63;;;6.10;;
53062;SDS011;40529;52.172;10.548;2022-11-12T06:53:03;11.90;;;7.00;;
53062;SDS011;40529;52.172;10.548;2022-11-12T06:55:30;10.38;;;7.72;;
53062;SDS011;40529;52.172;10.548;2022-11-12T06:57:56;10.93;;;8.05;;
53062;SDS011;40529;52.172;10.548;2022-11-12T07:00:22;11.55;;;7.38;;
53062;SDS011;40529;52.172;10.548;2022-11-12T07:02:48;16.10;;;7.70;;
53062;SDS011;40529;52.172;10.548;2022-11-12T07:05:14;9.57;;;6.38;;
53062;SDS011;40529;52.172;10.548;2022-11-12T07:07:40;9.85;;;6.38;;
53062;SDS011;40529;52.172;10.548;2022-11-12T07:10:07;10.07;;;6.60;;
53062;SDS011;40529;52.172;10.548;2022-11-12T07:12:33;8.77;;;6.45;;
53062;SDS011;40529;52.172;10.548;2022-11-12T07:14:59;10.45;;;6.53;;
53062;SDS011;40529;52.172;10.548;2022-11-12T07:17:25;10.88;;;6.30;;
53062;SDS011;40529;52.172;10.548;2022-11-12T07:19:51;10.18;;;5.68;;
53062;SDS011;40529;52.172;10.548;2022-11-12T07:22:17;12.43;;;6.07;;
53062;SDS011;40529;52.172;10.548;2022-11-12T07:24:43;10.90;;;6.80;;
53062;SDS011;40529;52.172;10.548;2022-11-12T07:27:09;12.50;;;7.03;;
53062;SDS011;40529;52.172;10.548;2022-11-12T07:29:35;9.23;;;6.15;;
53062;SDS011;40529;52.172;10.548;2022-11-12T07:32:01;9.90;;;6.05;;
53062;SDS011;40529;52.172;10.548;2022-11-12T07:34:27;9.38;;;5.88;;
53062;SDS011;40529;52.172;10.548;2022-11-12T07:36:53;10.88;;;5.97;;
53062;SDS011;40529;52.172;10.548;2022-11-12T07:39:19;10.73;;;6.03;;
53062;SDS011;40529;52.172;10.548;2022-11-12T07:41:45;8.38;;;5.85;;
53062;SDS011;40529;52.172;10.548;2022-11-12T07:44:12;9.20;;;5.50;;
53062;SDS011;40529;52.172;10.548;2022-11-12T07:46:38;7.28;;;4.80;;
53062;SDS011;40529;52.172;10.548;2022-11-12T07:49:04;7.47;;;4.47;;
53062;SDS011;40529;52.172;10.548;2022-11-12T07:51:30;7.72;;;4.07;;
53062;SDS011;40529;52.172;10.548;2022-11-12T07:53:57;6.47;;;3.90;;
53062;SDS011;40529;52.172;10.548;2022-11-12T07:56:26;5.32;;;3.85;;
53062;SDS011;40529;52.172;10.548;2022-11-12T07:58:53;5.85;;;3.20;;
53062;SDS011;40529;52.172;10.548;2022-11-12T08:01:23;5.80;;;3.17;;
53062;SDS011;40529;52.172;10.548;2022-11-12T08:03:50;4.18;;;2.97;;
53062;SDS011;40529;52.172;10.548;2022-11-12T08:06:16;5.53;;;3.28;;
53062;SDS011;40529;52.172;10.548;2022-11-12T08:08:42;4.93;;;3.03;;
53062;SDS011;40529;52.172;10.548;2022-11-12T08:11:08;4.78;;;3.10;;
53062;SDS011;40529;52.172;10.548;2022-11-12T08:13:34;4.53;;;3.35;;
53062;SDS011;40529;52.172;10.548;2022-11-12T08:16:01;5.78;;;3.53;;
53062;SDS011;40529;52.172;10.548;2022-11-12T08:18:28;6.15;;;4.05;;
53062;SDS011;40529;52.172;10.548;2022-11-12T08:20:59;7.57;;;3.85;;
53062;SDS011;40529;52.172;10.548;2022-11-12T08:23:26;6.50;;;4.00;;
53062;SDS011;40529;52.172;10.548;2022-11-12T08:25:56;6.38;;;3.88;;
53062;SDS011;40529;52.172;10.548;2022-11-12T08:30:48;5.50;;;3.22;;
53062;SDS011;40529;52.172;10.548;2022-11-12T08:33:14;6.85;;;4.10;;
53062;SDS011;40529;52.172;10.548;2022-11-12T08:35:40;6.38;;;3.85;;
53062;SDS011;40529;52.172;10.548;2022-11-12T08:38:06;4.53;;;3.53;;
53062;SDS011;40529;52.172;10.548;2022-11-12T08:40:34;5.75;;;3.30;;
53062;SDS011;40529;52.172;10.548;2022-11-12T08:43:01;5.78;;;4.10;;
53062;SDS011;40529;52.172;10.548;2022-11-12T08:45:28;5.57;;;3.33;;
53062;SDS011;40529;52.172;10.548;2022-11-12T08:47:57;5.50;;;3.40;;
53062;SDS011;40529;52.172;10.548;2022-11-12T08:50:24;5.43;;;3.75;;
53062;SDS011;40529;52.172;10.548;2022-11-12T08:52:50;6.38;;;3.50;;
53062;SDS011;40529;52.172;10.548;2022-11-12T08:55:16;6.88;;;3.80;;
53062;SDS011;40529;52.172;10.548;2022-11-12T08:57:42;5.38;;;3.47;;
53062;SDS011;40529;52.172;10.548;2022-11-12T09:00:09;7.78;;;3.78;;
53062;SDS011;40529;52.172;10.548;2022-11-12T09:02:39;6.22;;;3.45;;
53062;SDS011;40529;52.172;10.548;2022-11-12T09:05:05;5.25;;;3.17;;
53062;SDS011;40529;52.172;10.548;2022-11-12T09:07:31;4.15;;;3.40;;
53062;SDS011;40529;52.172;10.548;2022-11-12T09:09:57;7.30;;;3.55;;
53062;SDS011;40529;52.172;10.548;2022-11-12T09:12:23;5.22;;;3.53;;
53062;SDS011;40529;52.172;10.548;2022-11-12T09:14:49;5.43;;;3.33;;
53062;SDS011;40529;52.172;10.548;2022-11-12T09:17:15;8.10;;;4.03;;
53062;SDS011;40529;52.172;10.548;2022-11-12T09:19:41;5.43;;;3.88;;
53062;SDS011;40529;52.172;10.548;2022-11-12T09:22:07;6.65;;;4.40;;
53062;SDS011;40529;52.172;10.548;2022-11-12T09:24:33;8.35;;;3.70;;
53062;SDS011;40529;52.172;10.548;2022-11-12T09:27:00;6.35;;;4.18;;
53062;SDS011;40529;52.172;10.548;2022-11-12T09:29:26;5.25;;;3.42;;
53062;SDS011;40529;52.172;10.548;2022-11-12T09:31:52;6.20;;;3.25;;
53062;SDS011;40529;52.172;10.548;2022-11-12T09:34:18;6.28;;;3.17;;
53062;SDS011;40529;52.172;10.548;2022-11-12T09:36:44;5.70;;;3.58;;
53062;SDS011;40529;52.172;10.548;2022-11-12T09:39:10;5.43;;;3.40;;
53062;SDS011;40529;52.172;10.548;2022-11-12T09:41:40;4.38;;;3.20;;
53062;SDS011;40529;52.172;10.548;2022-11-12T09:51:35;6.05;;;3.53;;
53062;SDS011;40529;52.172;10.548;2022-11-12T09:56:31;5.93;;;2.47;;
53062;SDS011;40529;52.172;10.548;2022-11-12T09:58:57;4.78;;;2.95;;
53062;SDS011;40529;52.172;10.548;2022-11-12T10:01:35;3.40;;;2.80;;
53062;SDS011;40529;52.172;10.548;2022-11-12T10:07:33;3.97;;;2.67;;
53062;SDS011;40529;52.172;10.548;2022-11-12T10:09:30;4.20;;;3.05;;
53062;SDS011;40529;52.172;10.548;2022-11-12T10:17:55;4.80;;;3.50;;
53062;SDS011;40529;52.172;10.548;2022-11-12T10:20:35;8.57;;;4.93;;
53062;SDS011;40529;52.172;10.548;2022-11-12T10:23:15;9.45;;;5.93;;
53062;SDS011;40529;52.172;10.548;2022-11-12T10:25:43;7.72;;;4.60;;
53062;SDS011;40529;52.172;10.548;2022-11-12T10:28:21;6.78;;;4.60;;
53062;SDS011;40529;52.172;10.548;2022-11-12T10:30:49;7.70;;;5.03;;
53062;SDS011;40529;52.172;10.548;2022-11-12T10:33:16;9.60;;;4.82;;
53062;SDS011;40529;52.172;10.548;2022-11-12T10:35:42;7.70;;;5.18;;
53062;SDS011;40529;52.172;10.548;2022-11-12T10:38:11;6.82;;;4.50;;
53062;SDS011;40529;52.172;10.548;2022-11-12T10:40:39;7.70;;;4.32;;
53062;SDS011;40529;52.172;10.548;2022-11-12T10:45:44;5.03;;;4.18;;
53062;SDS011;40529;52.172;10.548;2022-11-12T10:48:44;8.80;;;5.07;;
53062;SDS011;40529;52.172;10.548;2022-11-12T10:51:03;9.70;;;4.30;;
53062;SDS011;40529;52.172;10.548;2022-11-12T10:53:44;6.65;;;4.15;;
53062;SDS011;40529;52.172;10.548;2022-11-12T10:56:23;6.05;;;3.92;;
53062;SDS011;40529;52.172;10.548;2022-11-12T11:01:35;7.63;;;4.18;;
53062;SDS011;40529;52.172;10.548;2022-11-12T11:04:01;9.10;;;4.68;;
53062;SDS011;40529;52.172;10.548;2022-11-12T11:06:27;11.48;;;5.20;;
53062;SDS011;40529;52.172;10.548;2022-11-12T11:09:15;7.43;;;3.83;;
53062;SDS011;40529;52.172;10.548;2022-11-12T11:11:50;8.90;;;4.75;;
53062;SDS011;40529;52.172;10.548;2022-11-12T11:16:57;11.57;;;4.73;;
53062;SDS011;40529;52.172;10.548;2022-11-12T11:19:31;5.93;;;3.13;;
53062;SDS011;40529;52.172;10.548;2022-11-12T11:22:04;4.65;;;3.53;;
53062;SDS011;40529;52.172;10.548;2022-11-12T11:37:18;5.22;;;3.28;;
53062;SDS011;40529;52.172;10.548;2022-11-12T11:42:35;6.07;;;3.25;;
53062;SDS011;40529;52.172;10.548;2022-11-12T11:47:53;6.00;;;3.40;;
53062;SDS011;40529;52.172;10.548;2022-11-12T12:08:07;4.97;;;2.87;;
53062;SDS011;40529;52.172;10.548;2022-11-12T12:10:38;3.40;;;2.50;;
53062;SDS011;40529;52.172;10.548;2022-11-12T12:13:29;3.55;;;2.40;;
53062;SDS011;40529;52.172;10.548;2022-11-12T12:20:56;3.58;;;2.58;;
53062;SDS011;40529;52.172;10.548;2022-11-12T12:25:57;6.38;;;2.70;;
53062;SDS011;40529;52.172;10.548;2022-11-12T12:28:33;4.88;;;2.90;;
53062;SDS011;40529;52.172;10.548;2022-11-12T12:31:03;5.82;;;3.10;;
53062;SDS011;40529;52.172;10.548;2022-11-12T12:33:33;6.15;;;2.42;;
53062;SDS011;40529;52.172;10.548;2022-11-12T12:36:07;4.47;;;2.47;;
53062;SDS011;40529;52.172;10.548;2022-11-12T12:43:35;5.82;;;2.80;;
53062;SDS011;40529;52.172;10.548;2022-11-12T12:46:02;4.93;;;2.90;;
53062;SDS011;40529;52.172;10.548;2022-11-12T12:48:50;4.32;;;2.58;;
53062;SDS011;40529;52.172;10.548;2022-11-12T12:51:16;4.57;;;2.72;;
53062;SDS011;40529;52.172;10.548;2022-11-12T12:53:42;4.57;;;2.55;;
53062;SDS011;40529;52.172;10.548;2022-11-12T13:03:52;7.60;;;2.40;;
53062;SDS011;40529;52.172;10.548;2022-11-12T13:19:27;4.05;;;2.13;;
53062;SDS011;40529;52.172;10.548;2022-11-12T13:40:15;4.03;;;2.25;;
53062;SDS011;40529;52.172;10.548;2022-11-12T13:42:41;4.10;;;2.25;;
53062;SDS011;40529;52.172;10.548;2022-11-12T13:45:14;4.68;;;2.25;;
53062;SDS011;40529;52.172;10.548;2022-11-12T13:47:41;4.00;;;2.20;;
53062;SDS011;40529;52.172;10.548;2022-11-12T13:50:08;5.38;;;3.22;;
53062;SDS011;40529;52.172;10.548;2022-11-12T13:52:38;5.38;;;2.47;;
53062;SDS011;40529;52.172;10.548;2022-11-12T13:55:15;4.63;;;2.30;;
53062;SDS011;40529;52.172;10.548;2022-11-12T13:57:47;2.95;;;2.17;;
53062;SDS011;40529;52.172;10.548;2022-11-12T14:02:45;7.57;;;2.42;;
53062;SDS011;40529;52.172;10.548;2022-11-12T14:05:16;4.10;;;2.83;;
53062;SDS011;40529;52.172;10.548;2022-11-12T14:18:17;5.15;;;2.47;;
53062;SDS011;40529;52.172;10.548;2022-11-12T14:20:45;3.35;;;2.45;;
53062;SDS011;40529;52.172;10.548;2022-11-12T14:23:15;5.15;;;1.73;;
53062;SDS011;40529;52.172;10.548;2022-11-12T14:26:00;5.95;;;2.80;;
53062;SDS011;40529;52.172;10.548;2022-11-12T14:30:52;6.82;;;3.58;;
53062;SDS011;40529;52.172;10.548;2022-11-12T14:33:19;8.75;;;3.03;;
53062;SDS011;40529;52.172;10.548;2022-11-12T14:35:46;6.60;;;2.80;;
53062;SDS011;40529;52.172;10.548;2022-11-12T14:41:21;5.97;;;3.00;;
53062;SDS011;40529;52.172;10.548;2022-11-12T14:46:20;24.05;;;14.73;;
53062;SDS011;40529;52.172;10.548;2022-11-12T14:48:49;9.15;;;5.97;;
53062;SDS011;40529;52.172;10.548;2022-11-12T14:51:16;11.18;;;4.55;;
53062;SDS011;40529;52.172;10.548;2022-11-12T14:53:43;8.93;;;5.18;;
53062;SDS011;40529;52.172;10.548;2022-11-12T14:56:23;10.30;;;4.78;;
53062;SDS011;40529;52.172;10.548;2022-11-12T14:58:51;7.32;;;4.35;;
53062;SDS011;40529;52.172;10.548;2022-11-12T15:03:50;9.60;;;3.85;;
53062;SDS011;40529;52.172;10.548;2022-11-12T15:06:26;4.40;;;3.25;;
53062;SDS011;40529;52.172;10.548;2022-11-12T15:08:57;5.82;;;2.97;;
53062;SDS011;40529;52.172;10.548;2022-11-12T15:13:52;4.13;;;2.00;;
53062;SDS011;40529;52.172;10.548;2022-11-12T15:16:21;4.75;;;2.47;;
53062;SDS011;40529;52.172;10.548;2022-11-12T15:19:21;4.95;;;2.67;;
53062;SDS011;40529;52.172;10.548;2022-11-12T15:21:53;5.53;;;2.90;;
53062;SDS011;40529;52.172;10.548;2022-11-12T15:26:46;5.15;;;2.75;;
53062;SDS011;40529;52.172;10.548;2022-11-12T15:29:33;4.80;;;3.00;;
53062;SDS011;40529;52.172;10.548;2022-11-12T15:37:07;6.67;;;3.43;;
53062;SDS011;40529;52.172;10.548;2022-11-12T15:39:38;7.38;;;3.88;;
53062;SDS011;40529;52.172;10.548;2022-11-12T15:42:05;7.15;;;3.55;;
53062;SDS011;40529;52.172;10.548;2022-11-12T15:44:38;6.28;;;3.17;;
53062;SDS011;40529;52.172;10.548;2022-11-12T15:47:04;8.10;;;3.75;;
53062;SDS011;40529;52.172;10.548;2022-11-12T15:49:30;5.18;;;3.42;;
53062;SDS011;40529;52.172;10.548;2022-11-12T15:51:56;6.00;;;3.53;;
53062;SDS011;40529;52.172;10.548;2022-11-12T15:54:22;7.50;;;3.83;;
53062;SDS011;40529;52.172;10.548;2022-11-12T15:56:48;6.25;;;3.13;;
53062;SDS011;40529;52.172;10.548;2022-11-12T15:59:15;8.02;;;3.42;;
53062;SDS011;40529;52.172;10.548;2022-11-12T16:01:41;5.10;;;3.95;;
53062;SDS011;40529;52.172;10.548;2022-11-12T16:04:09;7.10;;;3.85;;
53062;SDS011;40529;52.172;10.548;2022-11-12T16:06:36;6.13;;;3.80;;
53062;SDS011;40529;52.172;10.548;2022-11-12T16:09:02;9.77;;;5.53;;
53062;SDS011;40529;52.172;10.548;2022-11-12T16:11:28;10.68;;;6.35;;
53062;SDS011;40529;52.172;10.548;2022-11-12T16:14:00;8.75;;;5.93;;
53062;SDS011;40529;52.172;10.548;2022-11-12T16:16:27;16.73;;;9.98;;
53062;SDS011;40529;52.172;10.548;2022-11-12T16:18:53;17.52;;;9.10;;
53062;SDS011;40529;52.172;10.548;2022-11-12T16:21:19;15.15;;;9.27;;
53062;SDS011;40529;52.172;10.548;2022-11-12T16:23:45;12.40;;;8.60;;
53062;SDS011;40529;52.172;10.548;2022-11-12T16:26:11;14.10;;;8.75;;
53062;SDS011;40529;52.172;10.548;2022-11-12T16:28:39;18.67;;;10.32;;
53062;SDS011;40529;52.172;10.548;2022-11-12T16:31:05;18.30;;;10.70;;
53062;SDS011;40529;52.172;10.548;2022-11-12T16:33:31;19.75;;;10.70;;
53062;SDS011;40529;52.172;10.548;2022-11-12T16:35:57;20.67;;;10.93;;
53062;SDS011;40529;52.172;10.548;2022-11-12T16:38:23;24.05;;;12.52;;
53062;SDS011;40529;52.172;10.548;2022-11-12T16:40:49;28.30;;;14.93;;
53062;SDS011;40529;52.172;10.548;2022-11-12T16:43:16;32.38;;;15.02;;
53062;SDS011;40529;52.172;10.548;2022-11-12T16:45:42;31.98;;;16.08;;
53062;SDS011;40529;52.172;10.548;2022-11-12T16:48:13;30.58;;;14.95;;
53062;SDS011;40529;52.172;10.548;2022-11-12T16:50:40;24.17;;;12.73;;
53062;SDS011;40529;52.172;10.548;2022-11-12T16:53:06;27.25;;;13.02;;
53062;SDS011;40529;52.172;10.548;2022-11-12T16:55:32;22.85;;;12.77;;
53062;SDS011;40529;52.172;10.548;2022-11-12T16:57:58;20.15;;;12.75;;
53062;SDS011;40529;52.172;10.548;2022-11-12T17:00:24;19.85;;;11.65;;
53062;SDS011;40529;52.172;10.548;2022-11-12T17:02:52;19.65;;;11.05;;
53062;SDS011;40529;52.172;10.548;2022-11-12T17:05:21;18.15;;;11.13;;
53062;SDS011;40529;52.172;10.548;2022-11-12T17:07:48;16.95;;;10.30;;
53062;SDS011;40529;52.172;10.548;2022-11-12T17:10:15;20.92;;;10.30;;
53062;SDS011;40529;52.172;10.548;2022-11-12T17:12:41;14.35;;;9.23;;